createdAt,value
2023-03-11T00:00:28.393Z,85.18
2023-03-11T00:02:57.329Z,85.17
2023-03-11T00:05:30.404Z,85.13
2023-03-11T00:07:57.074Z,84.23
2023-03-11T00:10:29.914Z,82.81
2023-03-11T00:12:57.024Z,82.26
2023-03-11T00:15:23.522Z,81.61
2023-03-11T00:17:50.870Z,80.71
2023-03-11T00:20:38.995Z,80.90
2023-03-11T00:23:07.731Z,81.89
2023-03-11T00:25:36.482Z,82.40
2023-03-11T00:28:03.675Z,82.18
2023-03-11T00:30:30.615Z,81.69
2023-03-11T00:32:58.264Z,80.88
2023-03-11T00:35:28.080Z,79.74
2023-03-11T00:37:57.423Z,79.26
2023-03-11T00:40:26.248Z,78.71
2023-03-11T00:42:53.281Z,78.26
2023-03-11T00:45:20.495Z,78.63
2023-03-11T00:47:47.063Z,76.78
2023-03-11T00:50:20.204Z,76.42
2023-03-11T00:52:48.644Z,75.58
2023-03-11T00:55:18.723Z,75.84
2023-03-11T00:57:46.236Z,75.68
2023-03-11T01:00:19.731Z,75.77
2023-03-11T01:02:46.231Z,76.09
2023-03-11T01:05:13.824Z,75.31
2023-03-11T01:07:40.238Z,75.58
2023-03-11T01:10:09.091Z,75.40
2023-03-11T01:12:35.565Z,75.03
2023-03-11T01:15:03.115Z,74.71
2023-03-11T01:17:29.554Z,75.72
2023-03-11T01:19:55.949Z,75.18
2023-03-11T01:22:22.609Z,74.84
2023-03-11T01:24:48.991Z,74.90
2023-03-11T01:27:15.424Z,76.92
2023-03-11T01:29:41.851Z,78.09
2023-03-11T01:32:08.239Z,77.93
2023-03-11T01:34:36.103Z,76.54
2023-03-11T01:37:03.779Z,76.34
2023-03-11T01:39:30.502Z,73.88
2023-03-11T01:41:57.133Z,73.87
2023-03-11T01:44:23.573Z,72.76
2023-03-11T01:46:53.070Z,73.50
2023-03-11T01:49:23.116Z,72.88
2023-03-11T01:51:52.988Z,73.24
2023-03-11T01:54:27.029Z,73.37
2023-03-11T01:56:54.595Z,73.54
2023-03-11T01:59:30.755Z,73.57
2023-03-11T02:02:35.119Z,73.30
2023-03-11T02:05:02.824Z,76.29
2023-03-11T02:07:29.506Z,77.60
2023-03-11T02:09:55.985Z,76.04
2023-03-11T02:12:22.589Z,73.83
2023-03-11T02:14:51.705Z,73.53
2023-03-11T02:17:18.295Z,73.63
2023-03-11T02:19:58.962Z,74.17
2023-03-11T02:22:26.510Z,75.92
2023-03-11T02:25:16.579Z,76.59
2023-03-11T02:27:45.455Z,77.12
2023-03-11T02:30:13.668Z,77.97
2023-03-11T02:32:41.719Z,77.64
2023-03-11T02:35:08.529Z,77.09
2023-03-11T02:37:34.976Z,76.52
2023-03-11T02:40:23.398Z,76.86
2023-03-11T02:43:24.286Z,77.40
2023-03-11T02:45:50.944Z,79.06
2023-03-11T02:48:18.823Z,80.53
2023-03-11T02:50:46.705Z,81.18
2023-03-11T02:53:14.121Z,82.40
2023-03-11T02:55:40.649Z,82.13
2023-03-11T02:58:07.433Z,82.87
2023-03-11T03:00:34.518Z,83.19
2023-03-11T03:03:00.983Z,83.02
2023-03-11T03:05:28.039Z,82.14
2023-03-11T03:07:54.650Z,81.84
2023-03-11T03:10:22.274Z,80.97
2023-03-11T03:12:48.953Z,80.74
2023-03-11T03:15:16.078Z,80.61
2023-03-11T03:17:42.573Z,81.22
2023-03-11T03:20:11.946Z,82.15
2023-03-11T03:22:39.244Z,84.17
2023-03-11T03:25:06.467Z,84.57
2023-03-11T03:27:34.311Z,84.75
2023-03-11T03:30:00.756Z,85.17
2023-03-11T03:32:27.284Z,85.49
2023-03-11T03:34:58.941Z,86.52
2023-03-11T03:37:27.344Z,87.84
2023-03-11T03:39:54.913Z,88.53
2023-03-11T03:42:21.989Z,89.12
2023-03-11T03:44:48.420Z,88.93
2023-03-11T03:47:14.837Z,89.10
2023-03-11T03:49:41.340Z,89.40
2023-03-11T03:52:08.616Z,88.32
2023-03-11T03:54:35.039Z,87.21
2023-03-11T03:57:02.026Z,86.40
2023-03-11T03:59:28.648Z,86.88
2023-03-11T04:01:55.114Z,87.65
2023-03-11T04:04:21.639Z,88.27
2023-03-11T04:06:48.495Z,88.34
2023-03-11T04:09:15.092Z,88.54
2023-03-11T04:11:41.531Z,88.42
2023-03-11T04:14:07.939Z,88.42
2023-03-11T04:16:34.381Z,87.79
2023-03-11T04:19:00.824Z,87.24
2023-03-11T04:21:27.231Z,86.77
2023-03-11T04:23:53.643Z,86.11
2023-03-11T04:26:20.074Z,86.05
2023-03-11T04:28:46.501Z,85.94
2023-03-11T04:31:12.937Z,85.96
2023-03-11T04:33:39.406Z,86.22
2023-03-11T04:36:07.561Z,86.72
2023-03-11T04:38:35.528Z,87.04
2023-03-11T04:41:03.238Z,88.06
2023-03-11T04:43:30.277Z,88.71
2023-03-11T04:45:56.711Z,89.06
2023-03-11T04:48:24.677Z,89.71
2023-03-11T04:50:51.713Z,90.19
2023-03-11T04:53:18.167Z,90.20
2023-03-11T04:55:44.809Z,90.05
2023-03-11T04:58:11.222Z,90.56
2023-03-11T05:00:37.626Z,90.28
2023-03-11T05:03:04.206Z,91.04
2023-03-11T05:05:30.655Z,91.51
2023-03-11T05:07:57.040Z,91.74
2023-03-11T05:10:23.522Z,91.53
2023-03-11T05:12:50.327Z,91.90
2023-03-11T05:15:17.281Z,92.08
2023-03-11T05:17:43.799Z,92.23
2023-03-11T05:20:11.122Z,92.93
2023-03-11T05:22:38.229Z,92.85
2023-03-11T05:25:05.863Z,94.04
2023-03-11T05:27:32.902Z,93.48
2023-03-11T05:29:59.354Z,94.04
2023-03-11T05:32:25.927Z,94.07
2023-03-11T05:34:52.570Z,94.95
2023-03-11T05:37:19.095Z,95.09
2023-03-11T05:39:45.545Z,94.52
2023-03-11T05:42:11.961Z,94.03
2023-03-11T05:44:38.539Z,92.69
2023-03-11T05:47:05.120Z,91.11
2023-03-11T05:49:31.644Z,90.52
2023-03-11T05:51:58.853Z,90.53
2023-03-11T05:54:25.538Z,91.24
2023-03-11T05:56:52.072Z,91.50
2023-03-11T05:59:18.603Z,90.94
2023-03-11T06:01:45.308Z,90.73
2023-03-11T06:04:12.164Z,90.97
2023-03-11T06:06:42.848Z,91.62
2023-03-11T06:09:14.312Z,91.86
2023-03-11T06:11:41.382Z,92.00
2023-03-11T06:14:11.215Z,91.86
2023-03-11T06:16:37.735Z,91.44
2023-03-11T06:19:04.281Z,90.18
2023-03-11T06:21:30.777Z,89.63
2023-03-11T06:23:57.199Z,88.43
2023-03-11T06:26:24.540Z,87.87
2023-03-11T06:28:52.210Z,88.61
2023-03-11T06:31:28.246Z,89.69
2023-03-11T06:33:58.729Z,90.86
2023-03-11T06:36:25.162Z,91.33
2023-03-11T06:38:53.174Z,90.97
2023-03-11T06:41:19.923Z,89.83
2023-03-11T06:43:46.342Z,89.57
2023-03-11T06:46:18.228Z,89.12
2023-03-11T06:48:46.279Z,89.26
2023-03-11T06:51:13.468Z,89.11
2023-03-11T06:53:40.568Z,88.43
2023-03-11T06:56:12.201Z,88.11
2023-03-11T06:58:41.052Z,88.46
2023-03-11T07:01:13.076Z,88.86
2023-03-11T07:03:39.665Z,88.77
2023-03-11T07:06:07.156Z,88.34
2023-03-11T07:08:33.588Z,88.14
2023-03-11T07:11:08.640Z,87.67
2023-03-11T07:13:36.222Z,86.29
2023-03-11T07:16:13.032Z,85.51
2023-03-11T07:18:39.617Z,83.87
2023-03-11T07:21:08.101Z,83.53
2023-03-11T07:23:35.688Z,82.41
2023-03-11T07:26:02.209Z,81.37
2023-03-11T07:28:29.576Z,80.62
2023-03-11T07:30:56.213Z,80.01
2023-03-11T07:33:24.452Z,79.76
2023-03-11T07:35:51.726Z,80.38
2023-03-11T07:38:19.779Z,79.85
2023-03-11T07:40:46.426Z,79.82
2023-03-11T07:43:12.917Z,79.60
2023-03-11T07:45:39.388Z,79.33
2023-03-11T07:48:06.059Z,77.53
2023-03-11T07:50:32.556Z,76.48
2023-03-11T07:52:58.937Z,72.95
2023-03-11T07:55:25.486Z,73.04
2023-03-11T07:57:52.070Z,74.23
2023-03-11T08:00:19.284Z,75.64
2023-03-11T08:02:45.963Z,74.66
2023-03-11T08:05:12.653Z,73.95
2023-03-11T08:07:39.358Z,70.65
2023-03-11T08:10:06.675Z,72.37
2023-03-11T08:12:33.329Z,72.68
2023-03-11T08:14:59.757Z,71.72
2023-03-11T08:17:26.169Z,71.82
2023-03-11T08:19:52.719Z,71.56
2023-03-11T08:22:19.147Z,70.29
2023-03-11T08:24:45.562Z,67.83
2023-03-11T08:27:12.291Z,69.63
2023-03-11T08:29:38.726Z,69.75
2023-03-11T08:32:05.486Z,69.01
2023-03-11T08:34:32.878Z,68.21
2023-03-11T08:36:59.524Z,67.48
2023-03-11T08:39:25.957Z,66.84
2023-03-11T08:41:52.354Z,64.23
2023-03-11T08:44:18.784Z,67.33
2023-03-11T08:46:45.452Z,67.17
2023-03-11T08:49:11.910Z,66.47
2023-03-11T08:51:38.472Z,67.26
2023-03-11T08:54:05.592Z,66.36
2023-03-11T08:56:32.069Z,66.52
2023-03-11T08:58:58.616Z,66.57
2023-03-11T09:01:25.639Z,66.11
2023-03-11T09:03:52.481Z,66.07
2023-03-11T09:06:19.080Z,66.65
2023-03-11T09:08:46.307Z,66.51
2023-03-11T09:11:14.755Z,65.27
2023-03-11T09:13:42.277Z,65.36
2023-03-11T09:16:14.196Z,65.82
2023-03-11T09:18:40.778Z,66.03
2023-03-11T09:21:07.785Z,65.43
2023-03-11T09:23:34.493Z,64.99
2023-03-11T09:26:01.005Z,66.23
2023-03-11T09:28:27.622Z,66.93
2023-03-11T09:30:54.093Z,66.27
2023-03-11T09:33:20.715Z,65.98
2023-03-11T09:35:47.229Z,64.09
2023-03-11T09:38:14.015Z,65.07
2023-03-11T09:40:57.893Z,62.95
2023-03-11T09:43:45.768Z,59.70
2023-03-11T09:46:30.923Z,62.24
2023-03-11T09:49:06.309Z,59.51
2023-03-11T09:51:58.006Z,58.18
2023-03-11T09:54:24.831Z,59.87
2023-03-11T09:56:51.881Z,58.39
2023-03-11T09:59:31.479Z,58.21
2023-03-11T10:02:00.015Z,58.57
2023-03-11T10:04:41.025Z,57.92
2023-03-11T10:07:21.591Z,56.63
2023-03-11T10:09:52.364Z,57.33
2023-03-11T10:12:33.737Z,56.45
2023-03-11T10:15:18.937Z,57.10
2023-03-11T10:18:04.685Z,56.21
2023-03-11T10:20:41.841Z,57.28
2023-03-11T10:23:22.301Z,56.38
2023-03-11T10:25:54.786Z,55.32
2023-03-11T10:28:28.706Z,56.84
2023-03-11T10:31:05.430Z,54.23
2023-03-11T10:33:46.575Z,53.44
2023-03-11T10:36:23.858Z,52.94
2023-03-11T10:38:52.795Z,53.14
2023-03-11T10:41:26.877Z,51.82
2023-03-11T10:44:05.210Z,51.84
2023-03-11T10:46:31.774Z,50.91
2023-03-11T10:48:58.363Z,50.26
2023-03-11T10:51:31.732Z,50.96
2023-03-11T10:54:00.202Z,48.24
2023-03-11T10:56:40.225Z,46.04
2023-03-11T10:59:29.909Z,46.15
2023-03-11T11:02:21.367Z,46.60
2023-03-11T11:04:50.361Z,46.73
2023-03-11T11:07:39.585Z,46.88
2023-03-11T11:10:12.256Z,46.29
2023-03-11T11:13:16.986Z,45.06
2023-03-11T11:15:58.079Z,43.83
2023-03-11T11:18:29.482Z,43.35
2023-03-11T11:21:03.308Z,44.50
2023-03-11T11:23:43.298Z,43.72
2023-03-11T11:26:22.684Z,44.08
2023-03-11T11:29:14.433Z,44.72
2023-03-11T11:31:46.602Z,44.44
2023-03-11T11:34:33.754Z,42.52
2023-03-11T11:37:05.273Z,43.80
2023-03-11T11:39:57.816Z,44.43
2023-03-11T11:42:27.772Z,45.11
2023-03-11T11:45:05.615Z,44.99
2023-03-11T11:47:37.875Z,45.29
2023-03-11T11:50:13.137Z,46.37
2023-03-11T11:52:49.696Z,44.41
2023-03-11T11:55:30.545Z,44.19
2023-03-11T11:57:57.491Z,44.38
2023-03-11T12:00:35.512Z,43.03
2023-03-11T12:03:16.561Z,43.58
2023-03-11T12:05:52.440Z,40.48
2023-03-11T12:08:35.602Z,41.58
2023-03-11T12:11:08.912Z,42.27
2023-03-11T12:13:55.712Z,43.45
2023-03-11T12:16:47.628Z,42.15
2023-03-11T12:19:26.263Z,42.04
2023-03-11T12:22:18.041Z,42.68
2023-03-11T12:25:02.845Z,44.04
2023-03-11T12:27:44.706Z,44.04
2023-03-11T12:30:17.999Z,41.95
2023-03-11T12:32:57.809Z,40.94
2023-03-11T12:35:30.828Z,42.02
2023-03-11T12:38:20.382Z,42.24
2023-03-11T12:40:59.399Z,43.19
2023-03-11T12:43:33.619Z,42.90
2023-03-11T12:46:02.385Z,41.87
2023-03-11T12:48:46.595Z,40.47
2023-03-11T12:51:33.596Z,41.55
2023-03-11T12:54:34.034Z,42.15
2023-03-11T12:57:20.697Z,40.25
2023-03-11T13:00:17.462Z,39.95
2023-03-11T13:03:18.033Z,40.59
2023-03-11T13:06:06.288Z,41.24
2023-03-11T13:08:57.128Z,42.67
2023-03-11T13:11:32.358Z,41.39
2023-03-11T13:14:27.711Z,38.03
2023-03-11T13:16:54.508Z,40.59
2023-03-11T13:19:27.206Z,38.70
2023-03-11T13:21:57.878Z,41.03
2023-03-11T13:24:26.992Z,38.43
2023-03-11T13:26:59.895Z,36.90
2023-03-11T13:29:52.658Z,37.55
2023-03-11T13:32:31.577Z,38.47
2023-03-11T13:35:09.265Z,37.81
2023-03-11T13:38:09.685Z,34.81
2023-03-11T13:40:44.711Z,36.28
2023-03-11T13:43:16.659Z,36.27
2023-03-11T13:46:01.644Z,34.90
2023-03-11T13:48:44.817Z,34.86
2023-03-11T13:51:20.532Z,35.56
2023-03-11T13:53:55.730Z,36.31
2023-03-11T13:56:28.043Z,36.14
2023-03-11T13:58:54.544Z,35.10
2023-03-11T14:01:21.294Z,35.12
2023-03-11T14:03:48.497Z,34.94
2023-03-11T14:06:19.650Z,36.44
2023-03-11T14:08:57.507Z,35.16
2023-03-11T14:11:29.355Z,36.29
2023-03-11T14:13:55.809Z,35.18
2023-03-11T14:16:33.553Z,35.79
2023-03-11T14:19:12.969Z,36.30
2023-03-11T14:21:51.413Z,35.92
2023-03-11T14:24:25.791Z,36.58
2023-03-11T14:26:57.102Z,37.86
2023-03-11T14:29:37.260Z,37.75
2023-03-11T14:32:28.164Z,37.18
2023-03-11T14:34:54.974Z,35.66
2023-03-11T14:37:32.590Z,36.86
2023-03-11T14:39:59.599Z,37.56
2023-03-11T14:42:41.217Z,36.57
2023-03-11T14:45:18.254Z,37.66
2023-03-11T14:47:50.006Z,37.62
2023-03-11T14:50:22.655Z,36.27
2023-03-11T14:52:53.030Z,36.36
2023-03-11T14:55:29.885Z,37.30
2023-03-11T14:58:00.404Z,36.88
2023-03-11T15:00:36.683Z,37.47
2023-03-11T15:03:17.157Z,37.11
2023-03-11T15:05:56.808Z,37.38
2023-03-11T15:08:28.472Z,37.97
2023-03-11T15:11:12.998Z,39.64
2023-03-11T15:13:42.527Z,39.57
2023-03-11T15:16:26.447Z,39.24
2023-03-11T15:18:54.516Z,40.18
2023-03-11T15:21:23.962Z,40.48
2023-03-11T15:23:56.600Z,39.93
2023-03-11T15:26:25.877Z,40.68
2023-03-11T15:29:00.768Z,41.39
2023-03-11T15:31:39.524Z,40.93
2023-03-11T15:34:17.881Z,41.71
2023-03-11T15:36:55.370Z,41.30
2023-03-11T15:39:44.076Z,40.84
2023-03-11T15:42:22.956Z,41.75
2023-03-11T15:44:58.657Z,41.98
2023-03-11T15:47:25.145Z,42.56
2023-03-11T15:49:51.534Z,43.22
2023-03-11T15:52:20.272Z,43.83
2023-03-11T15:54:55.204Z,44.43
2023-03-11T15:57:28.204Z,44.01
2023-03-11T15:59:58.031Z,44.44
2023-03-11T16:02:27.909Z,44.68
2023-03-11T16:04:55.134Z,44.19
2023-03-11T16:07:36.801Z,44.28
2023-03-11T16:10:07.345Z,44.36
2023-03-11T16:12:33.805Z,44.60
2023-03-11T16:15:00.424Z,44.72
2023-03-11T16:17:31.871Z,45.26
2023-03-11T16:20:06.553Z,47.62
2023-03-11T16:22:36.454Z,49.50
2023-03-11T16:25:03.654Z,51.36
2023-03-11T16:27:30.543Z,52.39
2023-03-11T16:29:57.032Z,52.85
2023-03-11T16:32:23.538Z,52.66
2023-03-11T16:34:50.089Z,54.08
2023-03-11T16:37:20.734Z,54.76
2023-03-11T16:39:48.455Z,55.56
2023-03-11T16:42:23.241Z,56.79
2023-03-11T16:44:50.220Z,57.03
2023-03-11T16:47:16.717Z,57.31
2023-03-11T16:49:43.129Z,56.97
2023-03-11T16:52:09.588Z,57.10
2023-03-11T16:54:36.171Z,57.15
2023-03-11T16:57:03.542Z,57.51
2023-03-11T16:59:30.241Z,57.70
2023-03-11T17:01:56.687Z,58.22
2023-03-11T17:04:23.176Z,58.49
2023-03-11T17:06:49.599Z,59.10
2023-03-11T17:09:16.045Z,59.53
2023-03-11T17:11:42.450Z,59.91
2023-03-11T17:14:16.384Z,60.22
2023-03-11T17:16:45.201Z,61.16
2023-03-11T17:19:11.838Z,61.79
2023-03-11T17:21:38.228Z,62.24
2023-03-11T17:24:04.972Z,63.26
2023-03-11T17:26:31.769Z,64.68
2023-03-11T17:28:58.980Z,65.85
2023-03-11T17:31:25.556Z,67.04
2023-03-11T17:33:52.036Z,67.91
2023-03-11T17:36:18.760Z,68.74
2023-03-11T17:38:46.580Z,69.36
2023-03-11T17:41:15.674Z,69.98
2023-03-11T17:43:43.138Z,70.17
2023-03-11T17:46:12.308Z,70.46
2023-03-11T17:48:38.749Z,70.87
2023-03-11T17:51:10.723Z,71.50
2023-03-11T17:53:42.811Z,71.51
2023-03-11T17:56:13.112Z,71.26
2023-03-11T17:58:39.731Z,71.30
2023-03-11T18:01:08.936Z,71.71
2023-03-11T18:03:35.394Z,71.99
2023-03-11T18:06:04.044Z,72.16
2023-03-11T18:08:31.356Z,73.16
2023-03-11T18:11:03.109Z,72.71
2023-03-11T18:13:30.167Z,72.80
2023-03-11T18:15:58.836Z,73.28
2023-03-11T18:18:25.873Z,73.20
2023-03-11T18:20:52.428Z,73.37
2023-03-11T18:23:18.995Z,73.49
2023-03-11T18:25:51.556Z,73.69
2023-03-11T18:28:18.173Z,73.83
2023-03-11T18:30:44.612Z,73.79
2023-03-11T18:33:11.005Z,74.25
2023-03-11T18:35:37.452Z,74.25
2023-03-11T18:38:03.934Z,74.28
2023-03-11T18:40:30.326Z,74.45
2023-03-11T18:42:56.719Z,74.92
2023-03-11T18:45:23.175Z,74.79
2023-03-11T18:47:49.641Z,74.51
2023-03-11T18:50:16.457Z,74.59
2023-03-11T18:52:42.861Z,75.03
2023-03-11T18:55:09.528Z,75.35
2023-03-11T18:57:35.970Z,75.35
2023-03-11T19:00:02.454Z,75.59
2023-03-11T19:02:29.632Z,75.95
2023-03-11T19:04:56.160Z,76.12
2023-03-11T19:07:22.723Z,76.00
2023-03-11T19:09:49.411Z,75.71
2023-03-11T19:12:15.831Z,76.30
2023-03-11T19:14:42.380Z,76.69
2023-03-11T19:17:08.893Z,76.94
2023-03-11T19:19:35.386Z,77.59
2023-03-11T19:22:01.788Z,78.41
2023-03-11T19:24:28.308Z,78.72
2023-03-11T19:26:54.702Z,78.80
2023-03-11T19:29:23.672Z,78.81
2023-03-11T19:31:51.568Z,78.92
2023-03-11T19:34:18.216Z,78.67
2023-03-11T19:36:46.643Z,78.85
2023-03-11T19:39:13.146Z,79.11
2023-03-11T19:41:39.596Z,79.15
2023-03-11T19:44:06.051Z,79.30
2023-03-11T19:46:34.706Z,79.88
2023-03-11T19:49:01.344Z,80.12
2023-03-11T19:51:32.984Z,80.35
2023-03-11T19:54:05.642Z,80.49
2023-03-11T19:56:32.146Z,80.78
2023-03-11T19:58:58.636Z,81.34
2023-03-11T20:01:28.152Z,81.66
2023-03-11T20:03:54.587Z,82.09
2023-03-11T20:06:22.732Z,82.35
2023-03-11T20:08:50.188Z,82.30
2023-03-11T20:11:17.105Z,82.78
2023-03-11T20:13:44.119Z,84.17
2023-03-11T20:16:18.530Z,85.28
2023-03-11T20:18:49.413Z,85.13
2023-03-11T20:21:16.299Z,82.27
2023-03-11T20:23:42.745Z,82.07
2023-03-11T20:26:14.976Z,82.32
2023-03-11T20:28:41.521Z,82.13
2023-03-11T20:31:16.957Z,83.44
2023-03-11T20:33:43.634Z,85.15
2023-03-11T20:36:13.478Z,87.98
2023-03-11T20:38:40.802Z,91.80
2023-03-11T20:41:09.592Z,91.78
2023-03-11T20:43:37.113Z,97.97
2023-03-11T20:46:05.081Z,98.33
2023-03-11T20:48:31.757Z,100.00
2023-03-11T20:51:02.653Z,100.00
2023-03-11T20:53:30.915Z,100.00
2023-03-11T20:55:58.954Z,100.00
2023-03-11T20:58:25.475Z,100.00
2023-03-11T21:00:52.478Z,100.00
2023-03-11T21:03:18.987Z,100.00
2023-03-11T21:05:45.608Z,100.00
2023-03-11T21:08:12.480Z,100.00
2023-03-11T21:10:39.262Z,100.00
2023-03-11T21:13:05.977Z,100.00
2023-03-11T21:15:32.423Z,100.00
2023-03-11T21:17:59.011Z,100.00
2023-03-11T21:20:25.545Z,100.00
2023-03-11T21:22:51.972Z,100.00
2023-03-11T21:25:19.111Z,100.00
2023-03-11T21:27:45.652Z,100.00
2023-03-11T21:30:12.719Z,100.00
2023-03-11T21:32:39.270Z,100.00
2023-03-11T21:35:06.363Z,100.00
2023-03-11T21:37:32.990Z,100.00
2023-03-11T21:39:59.525Z,100.00
2023-03-11T21:42:29.091Z,100.00
2023-03-11T21:44:55.634Z,100.00
2023-03-11T21:47:22.159Z,100.00
2023-03-11T21:49:48.757Z,100.00
2023-03-11T21:52:15.218Z,100.00
2023-03-11T21:54:41.657Z,100.00
2023-03-11T21:57:08.197Z,100.00
2023-03-11T21:59:34.747Z,100.00
2023-03-11T22:02:03.209Z,100.00
2023-03-11T22:04:31.248Z,100.00
2023-03-11T22:06:57.956Z,100.00
2023-03-11T22:09:25.790Z,100.00
2023-03-11T22:11:52.434Z,100.00
2023-03-11T22:14:19.049Z,100.00
2023-03-11T22:16:45.507Z,100.00
2023-03-11T22:19:12.056Z,100.00
2023-03-11T22:21:38.500Z,100.00
2023-03-11T22:24:05.314Z,100.00
2023-03-11T22:26:31.695Z,100.00
2023-03-11T22:28:58.105Z,100.00
2023-03-11T22:31:25.074Z,100.00
2023-03-11T22:33:51.745Z,100.00
2023-03-11T22:36:18.330Z,100.00
2023-03-11T22:38:44.965Z,100.00
2023-03-11T22:41:12.515Z,100.00
2023-03-11T22:43:39.512Z,100.00
2023-03-11T22:46:06.757Z,100.00
2023-03-11T22:48:33.790Z,100.00
2023-03-11T22:51:00.255Z,100.00
2023-03-11T22:53:26.740Z,100.00
2023-03-11T22:55:53.212Z,100.00
2023-03-11T22:58:19.894Z,100.00
2023-03-11T23:00:46.587Z,100.00
2023-03-11T23:03:13.575Z,100.00
2023-03-11T23:05:43.232Z,100.00
2023-03-11T23:08:11.933Z,100.00
2023-03-11T23:10:47.144Z,100.00
2023-03-11T23:13:14.521Z,100.00
2023-03-11T23:15:42.856Z,100.00
2023-03-11T23:18:10.549Z,100.00
2023-03-11T23:20:39.156Z,100.00
2023-03-11T23:23:06.045Z,100.00
2023-03-11T23:25:33.937Z,100.00
2023-03-11T23:28:02.181Z,100.00
2023-03-11T23:30:29.473Z,100.00
2023-03-11T23:32:57.237Z,100.00
2023-03-11T23:35:23.851Z,100.00
2023-03-11T23:37:51.069Z,100.00
2023-03-11T23:40:18.089Z,100.00
2023-03-11T23:42:44.527Z,100.00
2023-03-11T23:45:11.288Z,100.00
2023-03-11T23:47:37.724Z,100.00
2023-03-11T23:50:05.219Z,100.00
2023-03-11T23:52:31.690Z,100.00
2023-03-11T23:54:58.151Z,100.00
2023-03-11T23:57:24.545Z,100.00
2023-03-11T23:59:50.945Z,100.00
